sensor_id;sensor_type;location;lat;lon;timestamp;pressure;altitude;pressure_sealevel;temperature;humidity
26697;BME280;14312;52.614;13.496;2023-05-16T00:01:30;100210.84;;;17.79;55.68
26697;BME280;14312;52.614;13.496;2023-05-16T00:04:17;100212.94;;;17.82;55.32
26697;BME280;14312;52.614;13.496;2023-05-16T00:07:03;100210.25;;;17.82;55.94
26697;BME280;14312;52.614;13.496;2023-05-16T00:09:49;100209.16;;;17.83;55.64
26697;BME280;14312;52.614;13.496;2023-05-16T00:12:35;100218.81;;;17.84;55.68
26697;BME280;14312;52.614;13.496;2023-05-16T00:15:22;100210.25;;;17.82;55.58
26697;BME280;14312;52.614;13.496;2023-05-16T00:18:09;100214.56;;;17.83;55.64
26697;BME280;14312;52.614;13.496;2023-05-16T00:20:59;100214.03;;;17.81;55.51
26697;BME280;14312;52.614;13.496;2023-05-16T00:23:46;100212.44;;;17.80;55.54
26697;BME280;14312;52.614;13.496;2023-05-16T00:26:31;100219.72;;;17.79;55.45
26697;BME280;14312;52.614;13.496;2023-05-16T00:29:17;100221.91;;;17.77;55.62
26697;BME280;14312;52.614;13.496;2023-05-16T00:32:04;100229.19;;;17.77;55.37
26697;BME280;14312;52.614;13.496;2023-05-16T00:34:50;100226.00;;;17.75;55.47
26697;BME280;14312;52.614;13.496;2023-05-16T00:37:37;100228.19;;;17.73;55.65
26697;BME280;14312;52.614;13.496;2023-05-16T00:40:23;100226.41;;;17.68;55.73
26697;BME280;14312;52.614;13.496;2023-05-16T00:43:09;100230.47;;;17.66;55.66
26697;BME280;14312;52.614;13.496;2023-05-16T00:45:55;100233.75;;;17.63;55.97
26697;BME280;14312;52.614;13.496;2023-05-16T00:48:42;100232.72;;;17.58;55.74
26697;BME280;14312;52.614;13.496;2023-05-16T00:51:28;100228.72;;;17.56;55.78
26697;BME280;14312;52.614;13.496;2023-05-16T00:54:14;100233.91;;;17.52;55.99
26697;BME280;14312;52.614;13.496;2023-05-16T00:57:00;100238.28;;;17.48;56.12
26697;BME280;14312;52.614;13.496;2023-05-16T00:59:46;100239.19;;;17.44;55.98
26697;BME280;14312;52.614;13.496;2023-05-16T01:02:33;100244.06;;;17.42;56.36
26697;BME280;14312;52.614;13.496;2023-05-16T01:05:20;100246.84;;;17.37;56.00
26697;BME280;14312;52.614;13.496;2023-05-16T01:08:06;100241.25;;;17.33;56.16
26697;BME280;14312;52.614;13.496;2023-05-16T01:11:21;100248.59;;;17.28;56.95
26697;BME280;14312;52.614;13.496;2023-05-16T01:17:35;100261.72;;;17.15;56.70
26697;BME280;14312;52.614;13.496;2023-05-16T01:23:39;100263.25;;;17.03;57.98
26697;BME280;14312;52.614;13.496;2023-05-16T01:26:27;100269.81;;;16.97;56.61
26697;BME280;14312;52.614;13.496;2023-05-16T01:29:14;100262.09;;;16.90;56.81
26697;BME280;14312;52.614;13.496;2023-05-16T01:32:01;100270.53;;;16.83;57.00
26697;BME280;14312;52.614;13.496;2023-05-16T01:34:48;100274.06;;;16.79;57.04
26697;BME280;14312;52.614;13.496;2023-05-16T01:37:38;100281.41;;;16.73;57.26
26697;BME280;14312;52.614;13.496;2023-05-16T01:40:47;100281.97;;;16.70;57.97
26697;BME280;14312;52.614;13.496;2023-05-16T01:43:42;100290.41;;;16.64;57.38
26697;BME280;14312;52.614;13.496;2023-05-16T01:46:33;100286.97;;;16.58;57.82
26697;BME280;14312;52.614;13.496;2023-05-16T01:52:31;100295.16;;;16.48;58.42
26697;BME280;14312;52.614;13.496;2023-05-16T01:55:30;100297.91;;;16.43;58.72
26697;BME280;14312;52.614;13.496;2023-05-16T01:58:22;100301.47;;;16.38;57.99
26697;BME280;14312;52.614;13.496;2023-05-16T02:01:11;100308.78;;;16.33;58.09
26697;BME280;14312;52.614;13.496;2023-05-16T02:03:58;100311.50;;;16.28;57.96
26697;BME280;14312;52.614;13.496;2023-05-16T02:06:44;100326.63;;;16.24;58.19
26697;BME280;14312;52.614;13.496;2023-05-16T02:09:30;100327.19;;;16.21;58.39
26697;BME280;14312;52.614;13.496;2023-05-16T02:12:16;100324.56;;;16.16;58.25
26697;BME280;14312;52.614;13.496;2023-05-16T02:15:03;100332.09;;;16.14;58.35
26697;BME280;14312;52.614;13.496;2023-05-16T02:17:48;100338.03;;;16.11;58.41
26697;BME280;14312;52.614;13.496;2023-05-16T02:20:35;100335.41;;;16.05;58.40
26697;BME280;14312;52.614;13.496;2023-05-16T02:23:21;100330.06;;;16.00;58.51
26697;BME280;14312;52.614;13.496;2023-05-16T02:26:07;100349.97;;;15.99;58.69
26697;BME280;14312;52.614;13.496;2023-05-16T02:28:53;100340.34;;;15.93;58.49
26697;BME280;14312;52.614;13.496;2023-05-16T02:31:39;100339.31;;;15.89;58.71
26697;BME280;14312;52.614;13.496;2023-05-16T02:34:27;100340.94;;;15.85;58.64
26697;BME280;14312;52.614;13.496;2023-05-16T02:37:13;100358.19;;;15.79;58.63
26697;BME280;14312;52.614;13.496;2023-05-16T02:39:59;100372.72;;;15.78;58.65
26697;BME280;14312;52.614;13.496;2023-05-16T02:42:44;100374.66;;;15.73;58.69
26697;BME280;14312;52.614;13.496;2023-05-16T02:45:31;100374.41;;;15.69;58.72
26697;BME280;14312;52.614;13.496;2023-05-16T02:48:17;100381.69;;;15.63;58.52
26697;BME280;14312;52.614;13.496;2023-05-16T02:51:03;100383.59;;;15.58;58.68
26697;BME280;14312;52.614;13.496;2023-05-16T02:53:49;100393.31;;;15.54;58.88
26697;BME280;14312;52.614;13.496;2023-05-16T02:56:35;100393.28;;;15.49;58.78
26697;BME280;14312;52.614;13.496;2023-05-16T02:59:21;100396.56;;;15.46;58.77
26697;BME280;14312;52.614;13.496;2023-05-16T03:02:07;100392.81;;;15.42;58.91
26697;BME280;14312;52.614;13.496;2023-05-16T03:04:53;100398.47;;;15.40;58.96
26697;BME280;14312;52.614;13.496;2023-05-16T03:07:39;100406.25;;;15.37;59.06
26697;BME280;14312;52.614;13.496;2023-05-16T03:10:26;100406.31;;;15.32;58.99
26697;BME280;14312;52.614;13.496;2023-05-16T03:13:12;100421.88;;;15.29;58.91
26697;BME280;14312;52.614;13.496;2023-05-16T03:15:58;100411.16;;;15.24;58.96
26697;BME280;14312;52.614;13.496;2023-05-16T03:18:44;100409.31;;;15.20;59.00
26697;BME280;14312;52.614;13.496;2023-05-16T03:21:30;100418.72;;;15.17;59.09
26697;BME280;14312;52.614;13.496;2023-05-16T03:24:16;100410.69;;;15.12;59.18
26697;BME280;14312;52.614;13.496;2023-05-16T03:27:02;100426.25;;;15.10;59.26
26697;BME280;14312;52.614;13.496;2023-05-16T03:29:49;100421.44;;;15.07;59.17
26697;BME280;14312;52.614;13.496;2023-05-16T03:32:36;100430.56;;;15.06;59.29
26697;BME280;14312;52.614;13.496;2023-05-16T03:35:23;100429.50;;;15.02;59.42
26697;BME280;14312;52.614;13.496;2023-05-16T03:38:09;100437.56;;;15.02;59.49
26697;BME280;14312;52.614;13.496;2023-05-16T03:40:55;100439.72;;;15.00;59.42
26697;BME280;14312;52.614;13.496;2023-05-16T03:43:41;100437.03;;;15.00;59.41
26697;BME280;14312;52.614;13.496;2023-05-16T03:46:27;100442.69;;;14.99;59.58
26697;BME280;14312;52.614;13.496;2023-05-16T03:49:13;100448.31;;;14.97;59.67
26697;BME280;14312;52.614;13.496;2023-05-16T03:51:59;100441.06;;;14.98;59.69
26697;BME280;14312;52.614;13.496;2023-05-16T03:54:45;100445.09;;;14.95;59.52
26697;BME280;14312;52.614;13.496;2023-05-16T03:57:32;100442.41;;;14.95;59.60
26697;BME280;14312;52.614;13.496;2023-05-16T04:00:18;100433.56;;;14.95;59.94
26697;BME280;14312;52.614;13.496;2023-05-16T04:03:04;100440.81;;;14.94;59.68
26697;BME280;14312;52.614;13.496;2023-05-16T04:05:50;100443.50;;;14.94;59.82
26697;BME280;14312;52.614;13.496;2023-05-16T04:08:37;100449.66;;;14.95;59.78
26697;BME280;14312;52.614;13.496;2023-05-16T04:11:25;100448.84;;;14.94;59.70
26697;BME280;14312;52.614;13.496;2023-05-16T04:14:11;100448.84;;;14.94;59.71
26697;BME280;14312;52.614;13.496;2023-05-16T04:16:57;100457.97;;;14.93;59.81
26697;BME280;14312;52.614;13.496;2023-05-16T04:19:43;100460.97;;;14.92;59.81
26697;BME280;14312;52.614;13.496;2023-05-16T04:22:30;100470.88;;;14.91;59.59
26697;BME280;14312;52.614;13.496;2023-05-16T04:25:16;100461.50;;;14.88;59.72
26697;BME280;14312;52.614;13.496;2023-05-16T04:28:02;100474.09;;;14.88;59.81
26697;BME280;14312;52.614;13.496;2023-05-16T04:30:48;100491.25;;;14.87;59.71
26697;BME280;14312;52.614;13.496;2023-05-16T04:33:35;100491.81;;;14.84;59.81
26697;BME280;14312;52.614;13.496;2023-05-16T04:36:21;100493.97;;;14.82;59.74
26697;BME280;14312;52.614;13.496;2023-05-16T04:39:07;100495.03;;;14.81;59.73
26697;BME280;14312;52.614;13.496;2023-05-16T04:41:53;100509.78;;;14.78;59.88
26697;BME280;14312;52.614;13.496;2023-05-16T04:44:39;100509.28;;;14.76;59.79
26697;BME280;14312;52.614;13.496;2023-05-16T04:47:25;100506.31;;;14.73;60.01
26697;BME280;14312;52.614;13.496;2023-05-16T04:50:11;100517.59;;;14.70;60.11
26697;BME280;14312;52.614;13.496;2023-05-16T04:52:57;100521.09;;;14.70;59.98
26697;BME280;14312;52.614;13.496;2023-05-16T04:55:43;100525.09;;;14.68;60.08
26697;BME280;14312;52.614;13.496;2023-05-16T04:58:29;100521.88;;;14.66;60.11
26697;BME280;14312;52.614;13.496;2023-05-16T05:01:15;100533.16;;;14.63;60.07
26697;BME280;14312;52.614;13.496;2023-05-16T05:04:01;100535.28;;;14.61;60.15
26697;BME280;14312;52.614;13.496;2023-05-16T05:06:47;100537.44;;;14.59;60.03
26697;BME280;14312;52.614;13.496;2023-05-16T05:09:33;100562.63;;;14.58;60.15
26697;BME280;14312;52.614;13.496;2023-05-16T05:12:19;100553.53;;;14.54;60.26
26697;BME280;14312;52.614;13.496;2023-05-16T05:15:06;100584.34;;;14.51;60.19
26697;BME280;14312;52.614;13.496;2023-05-16T05:17:52;100572.56;;;14.47;60.13
26697;BME280;14312;52.614;13.496;2023-05-16T05:20:38;100566.09;;;14.43;60.17
26697;BME280;14312;52.614;13.496;2023-05-16T05:23:24;100575.50;;;14.40;60.07
26697;BME280;14312;52.614;13.496;2023-05-16T05:26:10;100580.31;;;14.38;60.24
26697;BME280;14312;52.614;13.496;2023-05-16T05:28:56;100594.22;;;14.35;60.21
26697;BME280;14312;52.614;13.496;2023-05-16T05:31:42;100591.53;;;14.35;60.14
26697;BME280;14312;52.614;13.496;2023-05-16T05:34:28;100591.81;;;14.34;60.21
26697;BME280;14312;52.614;13.496;2023-05-16T05:37:14;100598.25;;;14.33;60.22
26697;BME280;14312;52.614;13.496;2023-05-16T05:40:00;100594.22;;;14.30;60.30
26697;BME280;14312;52.614;13.496;2023-05-16T05:42:47;100602.25;;;14.30;60.09
26697;BME280;14312;52.614;13.496;2023-05-16T05:45:33;100609.22;;;14.26;60.20
26697;BME280;14312;52.614;13.496;2023-05-16T05:48:19;100618.34;;;14.25;60.11
26697;BME280;14312;52.614;13.496;2023-05-16T05:51:05;100622.09;;;14.24;60.22
26697;BME280;14312;52.614;13.496;2023-05-16T05:53:52;100625.81;;;14.23;60.30
26697;BME280;14312;52.614;13.496;2023-05-16T05:56:38;100629.31;;;14.24;60.38
26697;BME280;14312;52.614;13.496;2023-05-16T05:59:24;100630.13;;;14.24;60.18
26697;BME280;14312;52.614;13.496;2023-05-16T06:02:10;100633.34;;;14.26;60.44
26697;BME280;14312;52.614;13.496;2023-05-16T06:04:56;100640.03;;;14.29;60.52
26697;BME280;14312;52.614;13.496;2023-05-16T06:07:42;100637.66;;;14.32;60.45
26697;BME280;14312;52.614;13.496;2023-05-16T06:10:28;100640.59;;;14.36;60.51
26697;BME280;14312;52.614;13.496;2023-05-16T06:13:14;100639.31;;;14.38;60.29
26697;BME280;14312;52.614;13.496;2023-05-16T06:16:00;100640.13;;;14.39;60.23
26697;BME280;14312;52.614;13.496;2023-05-16T06:18:47;100647.09;;;14.40;60.34
26697;BME280;14312;52.614;13.496;2023-05-16T06:21:33;100642.53;;;14.40;60.36
26697;BME280;14312;52.614;13.496;2023-05-16T06:24:19;100640.38;;;14.42;60.32
26697;BME280;14312;52.614;13.496;2023-05-16T06:27:05;100637.19;;;14.45;60.38
26697;BME280;14312;52.614;13.496;2023-05-16T06:29:51;100639.06;;;14.50;60.39
26697;BME280;14312;52.614;13.496;2023-05-16T06:32:37;100641.47;;;14.57;60.34
26697;BME280;14312;52.614;13.496;2023-05-16T06:35:25;100630.78;;;14.62;60.25
26697;BME280;14312;52.614;13.496;2023-05-16T06:38:11;100637.19;;;14.66;60.21
26697;BME280;14312;52.614;13.496;2023-05-16T06:40:57;100658.94;;;14.69;60.13
26697;BME280;14312;52.614;13.496;2023-05-16T06:43:43;100653.28;;;14.71;60.06
26697;BME280;14312;52.614;13.496;2023-05-16T06:46:29;100643.38;;;14.71;59.84
26697;BME280;14312;52.614;13.496;2023-05-16T06:49:15;100657.34;;;14.73;60.04
26697;BME280;14312;52.614;13.496;2023-05-16T06:52:02;100660.81;;;14.79;59.97
26697;BME280;14312;52.614;13.496;2023-05-16T06:54:48;100671.03;;;14.82;60.06
26697;BME280;14312;52.614;13.496;2023-05-16T06:57:34;100688.75;;;14.83;59.73
26697;BME280;14312;52.614;13.496;2023-05-16T07:00:20;100679.63;;;14.84;59.93
26697;BME280;14312;52.614;13.496;2023-05-16T07:03:06;100678.00;;;14.83;59.66
26697;BME280;14312;52.614;13.496;2023-05-16T07:05:52;100680.13;;;14.86;59.69
26697;BME280;14312;52.614;13.496;2023-05-16T07:08:38;100695.16;;;14.87;59.71
26697;BME280;14312;52.614;13.496;2023-05-16T07:11:24;100693.03;;;14.89;59.59
26697;BME280;14312;52.614;13.496;2023-05-16T07:14:10;100701.63;;;14.91;59.52
26697;BME280;14312;52.614;13.496;2023-05-16T07:16:56;100709.13;;;14.89;59.48
26697;BME280;14312;52.614;13.496;2023-05-16T07:19:42;100710.75;;;14.90;59.31
26697;BME280;14312;52.614;13.496;2023-05-16T07:22:28;100711.81;;;14.89;59.41
26697;BME280;14312;52.614;13.496;2023-05-16T07:25:15;100711.56;;;14.91;59.44
26697;BME280;14312;52.614;13.496;2023-05-16T07:28:01;100705.91;;;14.92;59.59
26697;BME280;14312;52.614;13.496;2023-05-16T07:30:47;100708.06;;;14.95;59.61
26697;BME280;14312;52.614;13.496;2023-05-16T07:33:33;100707.53;;;14.98;59.41
26697;BME280;14312;52.614;13.496;2023-05-16T07:36:19;100710.22;;;14.98;59.32
26697;BME280;14312;52.614;13.496;2023-05-16T07:39:05;100710.75;;;15.00;59.60
26697;BME280;14312;52.614;13.496;2023-05-16T07:41:51;100708.09;;;15.05;59.66
26697;BME280;14312;52.614;13.496;2023-05-16T07:44:37;100710.75;;;15.10;59.71
26697;BME280;14312;52.614;13.496;2023-05-16T07:47:23;100718.28;;;15.18;59.49
26697;BME280;14312;52.614;13.496;2023-05-16T07:50:10;100712.38;;;15.26;59.60
26697;BME280;14312;52.614;13.496;2023-05-16T07:52:56;100715.06;;;15.37;59.58
26697;BME280;14312;52.614;13.496;2023-05-16T07:55:41;100715.31;;;15.45;59.38
26697;BME280;14312;52.614;13.496;2023-05-16T07:58:27;100722.59;;;15.55;59.27
26697;BME280;14312;52.614;13.496;2023-05-16T08:01:14;100727.13;;;15.64;58.83
26697;BME280;14312;52.614;13.496;2023-05-16T08:04:00;100729.03;;;15.69;58.49
26697;BME280;14312;52.614;13.496;2023-05-16T08:06:46;100726.31;;;15.74;58.47
26697;BME280;14312;52.614;13.496;2023-05-16T08:09:32;100736.53;;;15.77;58.29
26697;BME280;14312;52.614;13.496;2023-05-16T08:12:17;100729.81;;;15.80;58.26
26697;BME280;14312;52.614;13.496;2023-05-16T08:15:04;100732.50;;;15.80;57.99
26697;BME280;14312;52.614;13.496;2023-05-16T08:17:50;100740.03;;;15.83;57.91
26697;BME280;14312;52.614;13.496;2023-05-16T08:20:36;100747.00;;;15.84;57.74
26697;BME280;14312;52.614;13.496;2023-05-16T08:23:22;100751.56;;;15.83;57.75
26697;BME280;14312;52.614;13.496;2023-05-16T08:26:08;100758.56;;;15.84;57.71
26697;BME280;14312;52.614;13.496;2023-05-16T08:28:54;100758.56;;;15.84;57.60
26697;BME280;14312;52.614;13.496;2023-05-16T08:31:39;100768.50;;;15.84;57.47
26697;BME280;14312;52.614;13.496;2023-05-16T08:34:25;100773.06;;;15.83;57.17
26697;BME280;14312;52.614;13.496;2023-05-16T08:37:11;100766.63;;;15.79;57.23
26697;BME280;14312;52.614;13.496;2023-05-16T08:39:58;100773.06;;;15.78;57.33
26697;BME280;14312;52.614;13.496;2023-05-16T08:42:44;100781.13;;;15.78;57.32
26697;BME280;14312;52.614;13.496;2023-05-16T08:45:30;100777.63;;;15.78;57.18
26697;BME280;14312;52.614;13.496;2023-05-16T08:48:18;100772.56;;;15.76;57.05
26697;BME280;14312;52.614;13.496;2023-05-16T08:51:08;100780.06;;;15.74;57.06
26697;BME280;14312;52.614;13.496;2023-05-16T08:54:11;100767.72;;;15.73;57.07
26697;BME280;14312;52.614;13.496;2023-05-16T08:56:58;100776.56;;;15.74;57.22
26697;BME280;14312;52.614;13.496;2023-05-16T08:59:46;100775.75;;;15.73;57.14
26697;BME280;14312;52.614;13.496;2023-05-16T09:02:32;100781.13;;;15.73;57.01
26697;BME280;14312;52.614;13.496;2023-05-16T09:05:18;100775.22;;;15.71;57.00
26697;BME280;14312;52.614;13.496;2023-05-16T09:08:04;100766.09;;;15.72;56.98
26697;BME280;14312;52.614;13.496;2023-05-16T09:10:50;100780.59;;;15.71;56.90
26697;BME280;14312;52.614;13.496;2023-05-16T09:13:38;100763.41;;;15.72;56.84
26697;BME280;14312;52.614;13.496;2023-05-16T09:16:24;100760.19;;;15.70;56.84
26697;BME280;14312;52.614;13.496;2023-05-16T09:19:12;100767.16;;;15.71;56.89
26697;BME280;14312;52.614;13.496;2023-05-16T09:22:01;100774.16;;;15.77;56.82
26697;BME280;14312;52.614;13.496;2023-05-16T09:24:47;100781.13;;;15.78;56.73
26697;BME280;14312;52.614;13.496;2023-05-16T09:27:33;100788.41;;;15.83;56.90
26697;BME280;14312;52.614;13.496;2023-05-16T09:30:27;100781.94;;;15.89;56.23
26697;BME280;14312;52.614;13.496;2023-05-16T09:33:14;100796.72;;;15.91;56.57
26697;BME280;14312;52.614;13.496;2023-05-16T09:36:01;100787.03;;;15.95;56.41
26697;BME280;14312;52.614;13.496;2023-05-16T09:38:50;100783.25;;;15.96;56.31
26697;BME280;14312;52.614;13.496;2023-05-16T09:41:36;100790.25;;;15.97;56.26
26697;BME280;14312;52.614;13.496;2023-05-16T09:44:22;100793.44;;;15.99;56.20
26697;BME280;14312;52.614;13.496;2023-05-16T09:47:08;100788.88;;;16.00;56.40
26697;BME280;14312;52.614;13.496;2023-05-16T09:49:55;100796.16;;;16.04;56.22
26697;BME280;14312;52.614;13.496;2023-05-16T09:52:42;100811.19;;;16.11;56.26
26697;BME280;14312;52.614;13.496;2023-05-16T09:55:29;100813.88;;;16.16;56.29
26697;BME280;14312;52.614;13.496;2023-05-16T09:58:16;100814.66;;;16.21;56.03
26697;BME280;14312;52.614;13.496;2023-05-16T10:01:04;100810.63;;;16.24;55.90
26697;BME280;14312;52.614;13.496;2023-05-16T10:03:50;100814.38;;;16.28;55.87
26697;BME280;14312;52.614;13.496;2023-05-16T10:06:36;100821.91;;;16.31;55.86
26697;BME280;14312;52.614;13.496;2023-05-16T10:09:23;100822.44;;;16.33;55.92
26697;BME280;14312;52.614;13.496;2023-05-16T10:12:11;100810.84;;;16.37;55.68
26697;BME280;14312;52.614;13.496;2023-05-16T10:15:00;100821.31;;;16.44;55.64
26697;BME280;14312;52.614;13.496;2023-05-16T10:17:50;100813.78;;;16.46;55.41
26697;BME280;14312;52.614;13.496;2023-05-16T10:20:42;100814.84;;;16.50;55.45
26697;BME280;14312;52.614;13.496;2023-05-16T10:23:30;100815.91;;;16.54;55.33
26697;BME280;14312;52.614;13.496;2023-05-16T10:26:16;100820.72;;;16.57;55.13
26697;BME280;14312;52.614;13.496;2023-05-16T10:29:03;100831.50;;;16.57;55.03
26697;BME280;14312;52.614;13.496;2023-05-16T10:31:50;100820.72;;;16.57;54.91
26697;BME280;14312;52.614;13.496;2023-05-16T10:34:36;100817.53;;;16.55;54.93
26697;BME280;14312;52.614;13.496;2023-05-16T10:37:23;100821.81;;;16.56;55.24
26697;BME280;14312;52.614;13.496;2023-05-16T10:40:10;100823.97;;;16.59;55.54
26697;BME280;14312;52.614;13.496;2023-05-16T10:42:57;100835.00;;;16.63;55.25
26697;BME280;14312;52.614;13.496;2023-05-16T10:45:45;100829.34;;;16.64;54.94
26697;BME280;14312;52.614;13.496;2023-05-16T10:48:39;100843.38;;;16.61;54.66
26697;BME280;14312;52.614;13.496;2023-05-16T10:51:33;100850.31;;;16.57;54.40
26697;BME280;14312;52.614;13.496;2023-05-16T10:54:19;100851.19;;;16.48;54.55
26697;BME280;14312;52.614;13.496;2023-05-16T10:57:16;100850.94;;;16.39;54.95
26697;BME280;14312;52.614;13.496;2023-05-16T11:00:06;100850.94;;;16.34;54.90
26697;BME280;14312;52.614;13.496;2023-05-16T11:03:03;100850.13;;;16.28;54.97
26697;BME280;14312;52.614;13.496;2023-05-16T11:05:58;100850.97;;;16.24;54.90
26697;BME280;14312;52.614;13.496;2023-05-16T11:09:06;100843.41;;;16.21;55.05
26697;BME280;14312;52.614;13.496;2023-05-16T11:11:57;100841.28;;;16.18;55.38
26697;BME280;14312;52.614;13.496;2023-05-16T11:14:49;100854.19;;;16.21;55.47
26697;BME280;14312;52.614;13.496;2023-05-16T11:17:41;100856.06;;;16.25;55.17
26697;BME280;14312;52.614;13.496;2023-05-16T11:20:35;100841.78;;;16.30;55.51
26697;BME280;14312;52.614;13.496;2023-05-16T11:23:22;100852.00;;;16.38;55.46
26697;BME280;14312;52.614;13.496;2023-05-16T11:26:05;100864.34;;;16.44;55.53
26697;BME280;14312;52.614;13.496;2023-05-16T11:28:52;100849.81;;;16.55;55.49
26697;BME280;14312;52.614;13.496;2023-05-16T11:31:39;100858.41;;;16.67;55.58
26697;BME280;14312;52.614;13.496;2023-05-16T11:34:25;100852.44;;;16.80;55.47
26697;BME280;14312;52.614;13.496;2023-05-16T11:37:12;100858.03;;;16.94;55.01
26697;BME280;14312;52.614;13.496;2023-05-16T11:39:59;100870.09;;;17.02;54.61
26697;BME280;14312;52.614;13.496;2023-05-16T11:42:46;100860.38;;;17.06;54.06
26697;BME280;14312;52.614;13.496;2023-05-16T11:45:33;100859.34;;;17.02;53.66
26697;BME280;14312;52.614;13.496;2023-05-16T11:48:19;100866.88;;;17.00;53.89
26697;BME280;14312;52.614;13.496;2023-05-16T11:51:05;100870.13;;;16.97;53.73
26697;BME280;14312;52.614;13.496;2023-05-16T11:53:52;100867.44;;;16.92;53.55
26697;BME280;14312;52.614;13.496;2023-05-16T11:56:38;100871.50;;;16.89;53.63
26697;BME280;14312;52.614;13.496;2023-05-16T11:59:25;100878.25;;;16.87;53.64
26697;BME280;14312;52.614;13.496;2023-05-16T12:02:11;100876.63;;;16.86;53.63
26697;BME280;14312;52.614;13.496;2023-05-16T12:04:57;100881.50;;;16.83;53.14
26697;BME280;14312;52.614;13.496;2023-05-16T12:07:44;100878.81;;;16.83;53.36
26697;BME280;14312;52.614;13.496;2023-05-16T12:10:31;100875.00;;;16.84;53.66
26697;BME280;14312;52.614;13.496;2023-05-16T12:13:20;100864.75;;;16.97;54.41
26697;BME280;14312;52.614;13.496;2023-05-16T12:16:07;100860.34;;;17.16;54.28
26697;BME280;14312;52.614;13.496;2023-05-16T12:18:53;100862.84;;;17.46;54.49
26697;BME280;14312;52.614;13.496;2023-05-16T12:21:39;100861.56;;;17.78;53.71
26697;BME280;14312;52.614;13.496;2023-05-16T12:24:29;100858.88;;;18.07;51.89
26697;BME280;14312;52.614;13.496;2023-05-16T12:27:22;100864.38;;;18.25;51.77
26697;BME280;14312;52.614;13.496;2023-05-16T12:36:59;100878.13;;;18.53;50.56
26697;BME280;14312;52.614;13.496;2023-05-16T12:53:40;100895.94;;;18.54;49.69
26697;BME280;14312;52.614;13.496;2023-05-16T12:57:04;100896.97;;;18.58;48.62
26697;BME280;14312;52.614;13.496;2023-05-16T12:59:54;100888.34;;;18.56;49.85
26697;BME280;14312;52.614;13.496;2023-05-16T13:03:04;100887.53;;;18.60;49.86
26697;BME280;14312;52.614;13.496;2023-05-16T13:05:50;100871.47;;;18.69;50.50
26697;BME280;14312;52.614;13.496;2023-05-16T13:08:37;100871.25;;;18.89;49.37
26697;BME280;14312;52.614;13.496;2023-05-16T13:11:24;100869.38;;;19.08;49.33
26697;BME280;14312;52.614;13.496;2023-05-16T13:14:10;100870.78;;;19.25;48.68
26697;BME280;14312;52.614;13.496;2023-05-16T13:16:56;100866.53;;;19.37;48.64
26697;BME280;14312;52.614;13.496;2023-05-16T13:19:42;100862.38;;;19.45;47.95
26697;BME280;14312;52.614;13.496;2023-05-16T13:22:29;100872.56;;;19.53;48.16
26697;BME280;14312;52.614;13.496;2023-05-16T13:25:15;100874.66;;;19.56;47.38
26697;BME280;14312;52.614;13.496;2023-05-16T13:28:01;100870.66;;;19.53;47.38
26697;BME280;14312;52.614;13.496;2023-05-16T13:30:47;100858.59;;;19.46;46.95
26697;BME280;14312;52.614;13.496;2023-05-16T13:33:33;100858.59;;;19.46;47.28
26697;BME280;14312;52.614;13.496;2023-05-16T13:36:20;100860.13;;;19.52;47.92
26697;BME280;14312;52.614;13.496;2023-05-16T13:39:06;100847.97;;;19.68;47.62
26697;BME280;14312;52.614;13.496;2023-05-16T13:41:53;100866.59;;;19.88;47.16
26697;BME280;14312;52.614;13.496;2023-05-16T13:44:39;100869.09;;;19.99;46.48
26697;BME280;14312;52.614;13.496;2023-05-16T13:47:25;100867.44;;;20.03;46.11
26697;BME280;14312;52.614;13.496;2023-05-16T13:50:11;100876.41;;;19.98;45.73
26697;BME280;14312;52.614;13.496;2023-05-16T13:52:57;100872.91;;;19.98;45.71
26697;BME280;14312;52.614;13.496;2023-05-16T13:55:43;100877.22;;;19.99;45.29
26697;BME280;14312;52.614;13.496;2023-05-16T13:58:29;100875.31;;;19.99;45.44
26697;BME280;14312;52.614;13.496;2023-05-16T14:01:15;100881.03;;;19.98;44.94
26697;BME280;14312;52.614;13.496;2023-05-16T14:04:01;100869.19;;;19.93;45.03
26697;BME280;14312;52.614;13.496;2023-05-16T14:06:47;100868.16;;;19.89;45.08
26697;BME280;14312;52.614;13.496;2023-05-16T14:09:33;100870.09;;;19.89;45.18
26697;BME280;14312;52.614;13.496;2023-05-16T14:12:23;100863.78;;;19.93;45.31
26697;BME280;14312;52.614;13.496;2023-05-16T14:15:09;100872.22;;;20.06;45.45
26697;BME280;14312;52.614;13.496;2023-05-16T14:17:55;100877.88;;;20.23;44.45
26697;BME280;14312;52.614;13.496;2023-05-16T14:20:41;100881.16;;;20.39;43.60
26697;BME280;14312;52.614;13.496;2023-05-16T14:23:27;100883.94;;;20.47;43.93
26697;BME280;14312;52.614;13.496;2023-05-16T14:26:13;100881.97;;;20.53;43.84
26697;BME280;14312;52.614;13.496;2023-05-16T14:29:00;100880.56;;;20.55;43.58
26697;BME280;14312;52.614;13.496;2023-05-16T14:31:49;100880.97;;;20.62;42.90
26697;BME280;14312;52.614;13.496;2023-05-16T14:34:35;100875.25;;;20.64;42.42
26697;BME280;14312;52.614;13.496;2023-05-16T14:37:21;100883.56;;;20.67;42.63
26697;BME280;14312;52.614;13.496;2023-05-16T14:40:07;100883.97;;;20.75;42.34
26697;BME280;14312;52.614;13.496;2023-05-16T14:42:54;100890.19;;;20.89;42.17
26697;BME280;14312;52.614;13.496;2023-05-16T14:45:40;100876.31;;;21.04;42.15
26697;BME280;14312;52.614;13.496;2023-05-16T14:48:26;100868.88;;;21.23;42.31
26697;BME280;14312;52.614;13.496;2023-05-16T14:51:12;100877.84;;;21.46;42.24
26697;BME280;14312;52.614;13.496;2023-05-16T14:53:58;100884.38;;;21.67;41.89